sensor_id;sensor_type;location;lat;lon;timestamp;temperature;humidity
431;DHT22;202;48.764;9.172;2023-04-03T00:00:30;5.90;49.20
431;DHT22;202;48.764;9.172;2023-04-03T00:02:57;6.10;49.10
431;DHT22;202;48.764;9.172;2023-04-03T00:05:24;6.10;48.50
431;DHT22;202;48.764;9.172;2023-04-03T00:07:50;6.30;47.80
431;DHT22;202;48.764;9.172;2023-04-03T00:10:19;6.30;47.30
431;DHT22;202;48.764;9.172;2023-04-03T00:12:45;6.30;47.50
431;DHT22;202;48.764;9.172;2023-04-03T00:15:12;6.30;46.60
431;DHT22;202;48.764;9.172;2023-04-03T00:17:39;6.30;47.10
431;DHT22;202;48.764;9.172;2023-04-03T00:20:07;6.40;46.70
431;DHT22;202;48.764;9.172;2023-04-03T00:22:34;6.50;46.90
431;DHT22;202;48.764;9.172;2023-04-03T00:25:01;6.50;45.60
431;DHT22;202;48.764;9.172;2023-04-03T00:27:29;6.40;45.80
431;DHT22;202;48.764;9.172;2023-04-03T00:29:56;6.40;46.50
431;DHT22;202;48.764;9.172;2023-04-03T00:32:23;6.40;46.40
431;DHT22;202;48.764;9.172;2023-04-03T00:34:52;6.40;46.50
431;DHT22;202;48.764;9.172;2023-04-03T00:37:19;6.30;46.40
431;DHT22;202;48.764;9.172;2023-04-03T00:39:46;6.30;46.80
431;DHT22;202;48.764;9.172;2023-04-03T00:42:12;6.40;46.50
431;DHT22;202;48.764;9.172;2023-04-03T00:47:45;6.50;46.50
431;DHT22;202;48.764;9.172;2023-04-03T00:50:13;6.60;46.60
431;DHT22;202;48.764;9.172;2023-04-03T00:52:40;6.50;46.60
431;DHT22;202;48.764;9.172;2023-04-03T00:55:09;6.60;46.50
431;DHT22;202;48.764;9.172;2023-04-03T00:57:36;6.60;46.60
431;DHT22;202;48.764;9.172;2023-04-03T01:00:07;6.60;46.10
431;DHT22;202;48.764;9.172;2023-04-03T01:02:35;6.60;46.50
431;DHT22;202;48.764;9.172;2023-04-03T01:05:04;6.60;46.60
431;DHT22;202;48.764;9.172;2023-04-03T01:07:32;6.80;46.50
431;DHT22;202;48.764;9.172;2023-04-03T01:10:00;6.80;45.90
431;DHT22;202;48.764;9.172;2023-04-03T01:12:29;6.90;45.60
431;DHT22;202;48.764;9.172;2023-04-03T01:14:59;6.90;45.50
431;DHT22;202;48.764;9.172;2023-04-03T01:17:31;6.80;45.40
431;DHT22;202;48.764;9.172;2023-04-03T01:23:08;6.80;45.60
431;DHT22;202;48.764;9.172;2023-04-03T01:25:40;6.80;44.80
431;DHT22;202;48.764;9.172;2023-04-03T01:28:10;6.70;45.50
431;DHT22;202;48.764;9.172;2023-04-03T01:30:43;6.60;45.70
431;DHT22;202;48.764;9.172;2023-04-03T01:33:12;6.60;45.80
431;DHT22;202;48.764;9.172;2023-04-03T01:35:39;6.70;45.60
431;DHT22;202;48.764;9.172;2023-04-03T01:38:06;6.60;45.70
431;DHT22;202;48.764;9.172;2023-04-03T01:40:33;6.60;45.60
431;DHT22;202;48.764;9.172;2023-04-03T01:43:00;6.70;46.00
431;DHT22;202;48.764;9.172;2023-04-03T01:45:26;6.60;45.40
431;DHT22;202;48.764;9.172;2023-04-03T01:47:54;6.70;46.00
431;DHT22;202;48.764;9.172;2023-04-03T01:50:22;6.70;45.70
431;DHT22;202;48.764;9.172;2023-04-03T01:52:49;6.50;45.60
431;DHT22;202;48.764;9.172;2023-04-03T01:55:16;6.50;45.50
431;DHT22;202;48.764;9.172;2023-04-03T01:57:43;6.50;46.30
431;DHT22;202;48.764;9.172;2023-04-03T02:00:10;6.60;45.90
431;DHT22;202;48.764;9.172;2023-04-03T02:02:37;6.50;46.20
431;DHT22;202;48.764;9.172;2023-04-03T02:05:05;6.50;47.10
431;DHT22;202;48.764;9.172;2023-04-03T02:07:33;6.70;46.10
431;DHT22;202;48.764;9.172;2023-04-03T02:10:00;6.50;45.40
431;DHT22;202;48.764;9.172;2023-04-03T02:12:26;6.50;45.60
431;DHT22;202;48.764;9.172;2023-04-03T02:14:53;6.50;45.30
431;DHT22;202;48.764;9.172;2023-04-03T02:17:20;6.60;45.50
431;DHT22;202;48.764;9.172;2023-04-03T02:19:47;6.60;45.30
431;DHT22;202;48.764;9.172;2023-04-03T02:22:14;6.70;44.80
431;DHT22;202;48.764;9.172;2023-04-03T02:24:42;6.70;45.00
431;DHT22;202;48.764;9.172;2023-04-03T02:27:09;6.70;45.20
431;DHT22;202;48.764;9.172;2023-04-03T02:29:35;6.60;45.10
431;DHT22;202;48.764;9.172;2023-04-03T02:32:02;6.40;45.50
431;DHT22;202;48.764;9.172;2023-04-03T02:34:29;6.40;45.20
431;DHT22;202;48.764;9.172;2023-04-03T02:36:56;6.60;44.90
431;DHT22;202;48.764;9.172;2023-04-03T02:39:23;6.70;43.60
431;DHT22;202;48.764;9.172;2023-04-03T02:41:51;6.50;41.70
431;DHT22;202;48.764;9.172;2023-04-03T02:44:18;6.40;41.60
431;DHT22;202;48.764;9.172;2023-04-03T02:46:45;6.30;43.00
431;DHT22;202;48.764;9.172;2023-04-03T02:49:11;6.40;42.30
431;DHT22;202;48.764;9.172;2023-04-03T02:51:38;6.30;42.50
431;DHT22;202;48.764;9.172;2023-04-03T02:54:05;6.30;42.50
431;DHT22;202;48.764;9.172;2023-04-03T02:56:32;6.30;41.50
431;DHT22;202;48.764;9.172;2023-04-03T02:59:00;6.10;43.00
431;DHT22;202;48.764;9.172;2023-04-03T03:01:27;6.00;43.70
431;DHT22;202;48.764;9.172;2023-04-03T03:03:57;6.00;43.50
431;DHT22;202;48.764;9.172;2023-04-03T03:06:23;6.10;43.90
431;DHT22;202;48.764;9.172;2023-04-03T03:08:51;6.30;43.30
431;DHT22;202;48.764;9.172;2023-04-03T03:11:17;6.20;43.30
431;DHT22;202;48.764;9.172;2023-04-03T03:13:45;6.30;43.20
431;DHT22;202;48.764;9.172;2023-04-03T03:16:13;6.20;42.20
431;DHT22;202;48.764;9.172;2023-04-03T03:18:40;6.20;42.90
431;DHT22;202;48.764;9.172;2023-04-03T03:21:08;6.00;43.10
431;DHT22;202;48.764;9.172;2023-04-03T03:23:36;5.90;44.10
431;DHT22;202;48.764;9.172;2023-04-03T03:26:07;5.90;43.30
431;DHT22;202;48.764;9.172;2023-04-03T03:28:35;5.90;43.00
431;DHT22;202;48.764;9.172;2023-04-03T03:31:02;5.80;43.90
431;DHT22;202;48.764;9.172;2023-04-03T03:33:30;5.80;43.40
431;DHT22;202;48.764;9.172;2023-04-03T03:35:57;5.90;43.70
431;DHT22;202;48.764;9.172;2023-04-03T03:38:24;5.90;44.00
431;DHT22;202;48.764;9.172;2023-04-03T03:40:51;5.90;44.20
431;DHT22;202;48.764;9.172;2023-04-03T03:43:18;6.00;43.20
431;DHT22;202;48.764;9.172;2023-04-03T03:45:50;6.00;43.50
431;DHT22;202;48.764;9.172;2023-04-03T03:48:20;6.00;43.30
431;DHT22;202;48.764;9.172;2023-04-03T03:50:49;6.10;43.40
431;DHT22;202;48.764;9.172;2023-04-03T03:53:16;6.10;42.80
431;DHT22;202;48.764;9.172;2023-04-03T03:55:43;6.10;43.00
431;DHT22;202;48.764;9.172;2023-04-03T03:58:10;6.10;43.50
431;DHT22;202;48.764;9.172;2023-04-03T04:00:37;6.20;43.20
431;DHT22;202;48.764;9.172;2023-04-03T04:03:04;6.20;43.40
431;DHT22;202;48.764;9.172;2023-04-03T04:05:31;6.30;43.70
431;DHT22;202;48.764;9.172;2023-04-03T04:07:59;6.10;42.50
431;DHT22;202;48.764;9.172;2023-04-03T04:10:26;6.10;43.10
431;DHT22;202;48.764;9.172;2023-04-03T04:12:53;6.20;41.40
431;DHT22;202;48.764;9.172;2023-04-03T04:15:20;6.20;41.50
431;DHT22;202;48.764;9.172;2023-04-03T04:17:48;6.20;41.40
431;DHT22;202;48.764;9.172;2023-04-03T04:20:15;6.10;41.60
431;DHT22;202;48.764;9.172;2023-04-03T04:22:42;6.00;41.80
431;DHT22;202;48.764;9.172;2023-04-03T04:25:10;6.00;41.90
431;DHT22;202;48.764;9.172;2023-04-03T04:27:37;6.10;41.80
431;DHT22;202;48.764;9.172;2023-04-03T04:30:05;6.00;41.60
431;DHT22;202;48.764;9.172;2023-04-03T04:32:32;6.10;41.40
431;DHT22;202;48.764;9.172;2023-04-03T04:34:59;6.10;41.30
431;DHT22;202;48.764;9.172;2023-04-03T04:37:26;6.10;40.10
431;DHT22;202;48.764;9.172;2023-04-03T04:39:53;6.00;40.70
431;DHT22;202;48.764;9.172;2023-04-03T04:42:22;6.10;41.20
431;DHT22;202;48.764;9.172;2023-04-03T04:44:48;6.10;40.60
431;DHT22;202;48.764;9.172;2023-04-03T04:47:15;6.10;41.40
431;DHT22;202;48.764;9.172;2023-04-03T04:49:43;6.20;40.30
431;DHT22;202;48.764;9.172;2023-04-03T04:52:09;6.10;40.50
431;DHT22;202;48.764;9.172;2023-04-03T04:54:36;6.00;39.50
431;DHT22;202;48.764;9.172;2023-04-03T04:57:03;6.10;39.70
431;DHT22;202;48.764;9.172;2023-04-03T04:59:32;6.10;40.30
431;DHT22;202;48.764;9.172;2023-04-03T05:01:59;6.10;39.40
431;DHT22;202;48.764;9.172;2023-04-03T05:04:29;6.10;39.50
431;DHT22;202;48.764;9.172;2023-04-03T05:07:01;6.10;38.60
431;DHT22;202;48.764;9.172;2023-04-03T05:09:28;6.20;39.20
431;DHT22;202;48.764;9.172;2023-04-03T05:11:55;6.10;38.90
431;DHT22;202;48.764;9.172;2023-04-03T05:14:22;6.00;37.70
431;DHT22;202;48.764;9.172;2023-04-03T05:16:52;6.00;38.40
431;DHT22;202;48.764;9.172;2023-04-03T05:19:19;6.10;37.90
431;DHT22;202;48.764;9.172;2023-04-03T05:21:46;6.10;37.70
431;DHT22;202;48.764;9.172;2023-04-03T05:24:14;6.20;37.30
431;DHT22;202;48.764;9.172;2023-04-03T05:26:41;6.10;38.10
431;DHT22;202;48.764;9.172;2023-04-03T05:29:09;6.00;37.60
431;DHT22;202;48.764;9.172;2023-04-03T05:31:36;6.00;38.30
431;DHT22;202;48.764;9.172;2023-04-03T05:34:04;6.10;38.30
431;DHT22;202;48.764;9.172;2023-04-03T05:36:31;5.90;38.90
431;DHT22;202;48.764;9.172;2023-04-03T05:38:58;5.90;39.40
431;DHT22;202;48.764;9.172;2023-04-03T05:41:28;6.00;39.10
431;DHT22;202;48.764;9.172;2023-04-03T05:43:55;6.00;40.00
431;DHT22;202;48.764;9.172;2023-04-03T05:46:21;5.90;39.50
431;DHT22;202;48.764;9.172;2023-04-03T05:48:48;5.90;39.70
431;DHT22;202;48.764;9.172;2023-04-03T05:51:18;5.90;40.30
431;DHT22;202;48.764;9.172;2023-04-03T05:54:01;5.90;40.10
431;DHT22;202;48.764;9.172;2023-04-03T05:56:30;5.90;40.30
431;DHT22;202;48.764;9.172;2023-04-03T05:58:57;5.70;39.50
431;DHT22;202;48.764;9.172;2023-04-03T06:01:24;5.60;40.20
431;DHT22;202;48.764;9.172;2023-04-03T06:03:52;5.60;40.70
431;DHT22;202;48.764;9.172;2023-04-03T06:06:20;5.60;40.10
431;DHT22;202;48.764;9.172;2023-04-03T06:08:47;5.70;40.50
431;DHT22;202;48.764;9.172;2023-04-03T06:11:14;5.70;40.70
431;DHT22;202;48.764;9.172;2023-04-03T06:13:41;5.80;39.70
431;DHT22;202;48.764;9.172;2023-04-03T06:16:10;5.80;39.90
431;DHT22;202;48.764;9.172;2023-04-03T06:18:42;5.80;41.10
431;DHT22;202;48.764;9.172;2023-04-03T06:21:10;5.80;40.00
431;DHT22;202;48.764;9.172;2023-04-03T06:23:38;5.80;40.40
431;DHT22;202;48.764;9.172;2023-04-03T06:26:06;6.00;40.00
431;DHT22;202;48.764;9.172;2023-04-03T06:28:32;5.90;40.50
431;DHT22;202;48.764;9.172;2023-04-03T06:30:59;6.00;40.00
431;DHT22;202;48.764;9.172;2023-04-03T06:33:26;6.00;39.80
431;DHT22;202;48.764;9.172;2023-04-03T06:35:58;6.00;40.60
431;DHT22;202;48.764;9.172;2023-04-03T06:38:25;6.00;40.60
431;DHT22;202;48.764;9.172;2023-04-03T06:40:53;6.20;41.00
431;DHT22;202;48.764;9.172;2023-04-03T06:43:21;6.20;40.30
431;DHT22;202;48.764;9.172;2023-04-03T06:45:48;6.10;39.80
431;DHT22;202;48.764;9.172;2023-04-03T06:48:16;6.10;39.80
431;DHT22;202;48.764;9.172;2023-04-03T06:50:43;6.10;40.80
431;DHT22;202;48.764;9.172;2023-04-03T06:53:11;6.20;41.20
431;DHT22;202;48.764;9.172;2023-04-03T06:55:39;6.30;40.50
431;DHT22;202;48.764;9.172;2023-04-03T06:58:08;6.30;40.20
431;DHT22;202;48.764;9.172;2023-04-03T07:00:35;6.40;39.50
431;DHT22;202;48.764;9.172;2023-04-03T07:03:02;6.30;39.60
431;DHT22;202;48.764;9.172;2023-04-03T07:08:26;6.20;40.80
431;DHT22;202;48.764;9.172;2023-04-03T07:11:10;6.30;41.00
431;DHT22;202;48.764;9.172;2023-04-03T07:13:49;6.30;40.20
431;DHT22;202;48.764;9.172;2023-04-03T07:16:33;6.10;41.20
431;DHT22;202;48.764;9.172;2023-04-03T07:19:19;6.10;41.30
431;DHT22;202;48.764;9.172;2023-04-03T07:21:50;6.20;41.00
431;DHT22;202;48.764;9.172;2023-04-03T07:24:37;6.00;41.20
431;DHT22;202;48.764;9.172;2023-04-03T07:27:04;5.90;41.30
431;DHT22;202;48.764;9.172;2023-04-03T07:29:35;6.00;42.00
431;DHT22;202;48.764;9.172;2023-04-03T07:32:07;6.00;41.70
431;DHT22;202;48.764;9.172;2023-04-03T07:34:37;6.20;42.90
431;DHT22;202;48.764;9.172;2023-04-03T07:37:20;6.30;41.50
431;DHT22;202;48.764;9.172;2023-04-03T07:39:48;6.30;41.10
431;DHT22;202;48.764;9.172;2023-04-03T07:42:24;6.30;41.50
431;DHT22;202;48.764;9.172;2023-04-03T07:45:02;6.30;41.50
431;DHT22;202;48.764;9.172;2023-04-03T07:47:29;6.30;40.70
431;DHT22;202;48.764;9.172;2023-04-03T07:49:57;6.20;41.50
431;DHT22;202;48.764;9.172;2023-04-03T07:52:24;6.30;41.20
431;DHT22;202;48.764;9.172;2023-04-03T07:54:52;6.60;41.70
431;DHT22;202;48.764;9.172;2023-04-03T07:57:20;6.80;41.60
431;DHT22;202;48.764;9.172;2023-04-03T07:59:47;6.80;39.40
431;DHT22;202;48.764;9.172;2023-04-03T08:02:15;6.80;39.90
431;DHT22;202;48.764;9.172;2023-04-03T08:04:42;6.80;40.40
431;DHT22;202;48.764;9.172;2023-04-03T08:07:09;6.70;40.00
431;DHT22;202;48.764;9.172;2023-04-03T08:09:36;6.50;41.10
431;DHT22;202;48.764;9.172;2023-04-03T08:12:03;6.70;41.80
431;DHT22;202;48.764;9.172;2023-04-03T08:14:31;6.80;41.10
431;DHT22;202;48.764;9.172;2023-04-03T08:17:00;6.90;40.70
431;DHT22;202;48.764;9.172;2023-04-03T08:19:30;7.10;40.70
431;DHT22;202;48.764;9.172;2023-04-03T08:21:57;6.90;40.50
431;DHT22;202;48.764;9.172;2023-04-03T08:24:25;6.90;40.40
431;DHT22;202;48.764;9.172;2023-04-03T08:26:52;6.90;40.60
431;DHT22;202;48.764;9.172;2023-04-03T08:29:19;7.10;42.10
431;DHT22;202;48.764;9.172;2023-04-03T08:31:46;7.20;40.90
431;DHT22;202;48.764;9.172;2023-04-03T08:34:15;7.40;40.30
431;DHT22;202;48.764;9.172;2023-04-03T08:36:43;7.30;40.60
431;DHT22;202;48.764;9.172;2023-04-03T08:39:11;7.40;39.70
431;DHT22;202;48.764;9.172;2023-04-03T08:41:39;7.30;40.20
431;DHT22;202;48.764;9.172;2023-04-03T08:44:17;7.30;39.30
431;DHT22;202;48.764;9.172;2023-04-03T08:47:09;7.00;40.10
431;DHT22;202;48.764;9.172;2023-04-03T08:49:40;7.10;41.10
431;DHT22;202;48.764;9.172;2023-04-03T08:52:15;7.20;40.90
431;DHT22;202;48.764;9.172;2023-04-03T08:54:49;7.20;41.00
431;DHT22;202;48.764;9.172;2023-04-03T08:57:19;7.40;39.80
431;DHT22;202;48.764;9.172;2023-04-03T08:59:47;7.20;39.40
431;DHT22;202;48.764;9.172;2023-04-03T09:02:24;7.20;40.10
431;DHT22;202;48.764;9.172;2023-04-03T09:04:52;7.40;40.70
431;DHT22;202;48.764;9.172;2023-04-03T09:07:25;7.60;40.20
431;DHT22;202;48.764;9.172;2023-04-03T09:09:57;7.20;39.10
431;DHT22;202;48.764;9.172;2023-04-03T09:12:33;7.20;38.80
431;DHT22;202;48.764;9.172;2023-04-03T09:15:10;7.20;39.40
431;DHT22;202;48.764;9.172;2023-04-03T09:17:45;7.30;39.30
431;DHT22;202;48.764;9.172;2023-04-03T09:20:21;7.30;39.00
431;DHT22;202;48.764;9.172;2023-04-03T09:22:54;7.50;38.20
431;DHT22;202;48.764;9.172;2023-04-03T09:25:23;7.30;38.10
431;DHT22;202;48.764;9.172;2023-04-03T09:27:51;7.50;38.60
431;DHT22;202;48.764;9.172;2023-04-03T09:30:20;7.30;37.40
431;DHT22;202;48.764;9.172;2023-04-03T09:32:50;7.40;38.30
431;DHT22;202;48.764;9.172;2023-04-03T09:35:25;7.30;37.90
431;DHT22;202;48.764;9.172;2023-04-03T09:37:58;7.40;38.30
431;DHT22;202;48.764;9.172;2023-04-03T09:40:35;7.30;38.40
431;DHT22;202;48.764;9.172;2023-04-03T09:43:20;7.30;39.40
431;DHT22;202;48.764;9.172;2023-04-03T09:45:48;7.20;38.70
431;DHT22;202;48.764;9.172;2023-04-03T09:48:17;7.30;39.50
431;DHT22;202;48.764;9.172;2023-04-03T09:50:59;7.30;38.30
431;DHT22;202;48.764;9.172;2023-04-03T09:53:35;7.30;38.40
431;DHT22;202;48.764;9.172;2023-04-03T09:56:04;7.40;37.80
431;DHT22;202;48.764;9.172;2023-04-03T09:58:35;7.40;37.50
431;DHT22;202;48.764;9.172;2023-04-03T10:01:04;7.20;36.50
431;DHT22;202;48.764;9.172;2023-04-03T10:03:33;7.10;36.90
431;DHT22;202;48.764;9.172;2023-04-03T10:06:01;7.20;37.30
431;DHT22;202;48.764;9.172;2023-04-03T10:08:31;7.30;37.40
431;DHT22;202;48.764;9.172;2023-04-03T10:11:13;7.30;37.50
431;DHT22;202;48.764;9.172;2023-04-03T10:13:52;7.30;37.10
431;DHT22;202;48.764;9.172;2023-04-03T10:16:27;7.40;37.50
431;DHT22;202;48.764;9.172;2023-04-03T10:19:05;7.30;37.20
431;DHT22;202;48.764;9.172;2023-04-03T10:22:53;7.30;37.40
431;DHT22;202;48.764;9.172;2023-04-03T10:24:54;7.20;36.90
431;DHT22;202;48.764;9.172;2023-04-03T10:28:00;7.20;37.30
431;DHT22;202;48.764;9.172;2023-04-03T10:30:50;7.40;37.00
431;DHT22;202;48.764;9.172;2023-04-03T10:33:53;7.50;36.30
431;DHT22;202;48.764;9.172;2023-04-03T10:36:38;7.60;35.60
431;DHT22;202;48.764;9.172;2023-04-03T10:57:27;7.30;36.50
431;DHT22;202;48.764;9.172;2023-04-03T10:59:57;7.60;35.70
431;DHT22;202;48.764;9.172;2023-04-03T11:02:28;7.60;35.00
431;DHT22;202;48.764;9.172;2023-04-03T11:05:01;7.70;35.30
431;DHT22;202;48.764;9.172;2023-04-03T11:07:37;7.80;34.40
431;DHT22;202;48.764;9.172;2023-04-03T11:10:11;7.70;35.30
431;DHT22;202;48.764;9.172;2023-04-03T11:12:47;7.80;32.80
431;DHT22;202;48.764;9.172;2023-04-03T11:15:19;7.70;35.00
431;DHT22;202;48.764;9.172;2023-04-03T11:18:00;7.70;33.30
431;DHT22;202;48.764;9.172;2023-04-03T11:20:30;7.80;32.80
431;DHT22;202;48.764;9.172;2023-04-03T11:23:30;8.00;32.50
431;DHT22;202;48.764;9.172;2023-04-03T11:56:30;7.50;32.60
431;DHT22;202;48.764;9.172;2023-04-03T11:59:43;7.40;32.40
431;DHT22;202;48.764;9.172;2023-04-03T12:05:40;7.50;31.60
431;DHT22;202;48.764;9.172;2023-04-03T12:11:43;7.40;30.50
431;DHT22;202;48.764;9.172;2023-04-03T12:14:46;7.50;30.90
431;DHT22;202;48.764;9.172;2023-04-03T12:17:26;7.50;31.40
431;DHT22;202;48.764;9.172;2023-04-03T12:23:33;7.50;30.80
431;DHT22;202;48.764;9.172;2023-04-03T12:26:41;7.40;31.40
431;DHT22;202;48.764;9.172;2023-04-03T12:47:52;7.70;31.90
431;DHT22;202;48.764;9.172;2023-04-03T12:51:07;7.70;30.20
431;DHT22;202;48.764;9.172;2023-04-03T12:53:54;7.90;30.10
431;DHT22;202;48.764;9.172;2023-04-03T13:04:19;7.90;29.80
431;DHT22;202;48.764;9.172;2023-04-03T13:06:49;8.10;29.00
431;DHT22;202;48.764;9.172;2023-04-03T13:09:21;8.10;29.10
431;DHT22;202;48.764;9.172;2023-04-03T13:11:49;7.90;28.70
431;DHT22;202;48.764;9.172;2023-04-03T13:14:19;7.90;28.80
431;DHT22;202;48.764;9.172;2023-04-03T13:16:54;8.00;29.40
431;DHT22;202;48.764;9.172;2023-04-03T13:19:25;8.10;28.30
431;DHT22;202;48.764;9.172;2023-04-03T13:21:58;8.20;28.60
431;DHT22;202;48.764;9.172;2023-04-03T13:24:30;8.20;28.00
431;DHT22;202;48.764;9.172;2023-04-03T13:26:58;8.30;27.70
431;DHT22;202;48.764;9.172;2023-04-03T13:29:28;8.40;27.30
431;DHT22;202;48.764;9.172;2023-04-03T13:31:56;8.50;27.30
431;DHT22;202;48.764;9.172;2023-04-03T13:34:27;8.40;27.40
431;DHT22;202;48.764;9.172;2023-04-03T13:36:58;8.20;28.20
431;DHT22;202;48.764;9.172;2023-04-03T13:39:28;8.30;28.70
431;DHT22;202;48.764;9.172;2023-04-03T13:41:57;8.30;28.90
431;DHT22;202;48.764;9.172;2023-04-03T13:44:33;8.30;28.40
431;DHT22;202;48.764;9.172;2023-04-03T13:47:15;8.30;26.90
431;DHT22;202;48.764;9.172;2023-04-03T13:49:57;8.20;27.40
431;DHT22;202;48.764;9.172;2023-04-03T13:52:28;8.30;26.90
431;DHT22;202;48.764;9.172;2023-04-03T13:54:58;8.40;27.20
431;DHT22;202;48.764;9.172;2023-04-03T13:57:52;8.50;27.80
431;DHT22;202;48.764;9.172;2023-04-03T14:00:33;8.70;26.60
431;DHT22;202;48.764;9.172;2023-04-03T14:10:26;8.70;26.30
431;DHT22;202;48.764;9.172;2023-04-03T14:20:47;8.50;26.50
431;DHT22;202;48.764;9.172;2023-04-03T14:23:19;8.50;26.70
431;DHT22;202;48.764;9.172;2023-04-03T14:25:51;8.40;27.00
431;DHT22;202;48.764;9.172;2023-04-03T14:28:22;8.30;26.80
431;DHT22;202;48.764;9.172;2023-04-03T14:30:51;8.20;27.30
431;DHT22;202;48.764;9.172;2023-04-03T14:33:27;8.30;26.80
431;DHT22;202;48.764;9.172;2023-04-03T14:35:56;8.40;26.70
431;DHT22;202;48.764;9.172;2023-04-03T14:38:25;8.50;27.00
431;DHT22;202;48.764;9.172;2023-04-03T14:40:56;8.50;26.70
431;DHT22;202;48.764;9.172;2023-04-03T14:43:23;8.40;26.60
431;DHT22;202;48.764;9.172;2023-04-03T14:45:50;8.30;26.30
431;DHT22;202;48.764;9.172;2023-04-03T14:48:20;8.40;26.30
431;DHT22;202;48.764;9.172;2023-04-03T14:50:48;8.50;27.20
431;DHT22;202;48.764;9.172;2023-04-03T14:53:16;8.60;25.00
431;DHT22;202;48.764;9.172;2023-04-03T14:55:45;8.60;25.50
431;DHT22;202;48.764;9.172;2023-04-03T14:58:15;8.70;25.90
431;DHT22;202;48.764;9.172;2023-04-03T15:00:46;8.80;25.00
431;DHT22;202;48.764;9.172;2023-04-03T15:03:14;8.50;24.80
431;DHT22;202;48.764;9.172;2023-04-03T15:05:42;8.40;24.80
431;DHT22;202;48.764;9.172;2023-04-03T15:08:18;8.50;25.70
431;DHT22;202;48.764;9.172;2023-04-03T15:10:46;8.30;24.70
431;DHT22;202;48.764;9.172;2023-04-03T15:13:15;8.40;24.80
431;DHT22;202;48.764;9.172;2023-04-03T15:15:42;8.40;24.80
431;DHT22;202;48.764;9.172;2023-04-03T15:18:15;8.30;25.40
431;DHT22;202;48.764;9.172;2023-04-03T15:20:43;8.40;25.70
431;DHT22;202;48.764;9.172;2023-04-03T15:23:11;8.50;25.00
431;DHT22;202;48.764;9.172;2023-04-03T15:25:41;8.40;24.80
431;DHT22;202;48.764;9.172;2023-04-03T15:28:11;8.30;24.70
431;DHT22;202;48.764;9.172;2023-04-03T15:30:43;8.20;24.60
431;DHT22;202;48.764;9.172;2023-04-03T15:33:10;8.10;23.60
431;DHT22;202;48.764;9.172;2023-04-03T15:35:37;8.00;24.20
431;DHT22;202;48.764;9.172;2023-04-03T15:38:04;8.20;23.80
431;DHT22;202;48.764;9.172;2023-04-03T15:40:31;8.20;24.60
431;DHT22;202;48.764;9.172;2023-04-03T15:42:58;8.10;24.00
431;DHT22;202;48.764;9.172;2023-04-03T15:45:25;8.10;24.60
431;DHT22;202;48.764;9.172;2023-04-03T15:47:56;8.00;24.50
431;DHT22;202;48.764;9.172;2023-04-03T15:50:24;8.10;24.60
431;DHT22;202;48.764;9.172;2023-04-03T15:52:51;8.10;25.00
431;DHT22;202;48.764;9.172;2023-04-03T15:55:20;8.20;24.60
431;DHT22;202;48.764;9.172;2023-04-03T15:57:47;8.10;25.20
431;DHT22;202;48.764;9.172;2023-04-03T16:00:15;8.30;24.70
431;DHT22;202;48.764;9.172;2023-04-03T16:02:44;8.30;24.70
431;DHT22;202;48.764;9.172;2023-04-03T16:05:14;8.30;24.70
431;DHT22;202;48.764;9.172;2023-04-03T16:07:43;8.30;24.40
431;DHT22;202;48.764;9.172;2023-04-03T16:10:12;8.20;24.50
431;DHT22;202;48.764;9.172;2023-04-03T16:12:39;8.20;24.20
431;DHT22;202;48.764;9.172;2023-04-03T16:15:07;8.40;24.50
431;DHT22;202;48.764;9.172;2023-04-03T16:17:35;8.30;24.70
431;DHT22;202;48.764;9.172;2023-04-03T16:20:04;8.30;24.00
431;DHT22;202;48.764;9.172;2023-04-03T16:22:34;8.40;24.20
431;DHT22;202;48.764;9.172;2023-04-03T16:25:01;8.40;23.90
431;DHT22;202;48.764;9.172;2023-04-03T16:27:28;8.30;23.90
431;DHT22;202;48.764;9.172;2023-04-03T16:29:56;8.30;23.00
431;DHT22;202;48.764;9.172;2023-04-03T16:32:24;8.30;22.60
431;DHT22;202;48.764;9.172;2023-04-03T16:34:52;8.20;23.80
431;DHT22;202;48.764;9.172;2023-04-03T16:37:20;8.20;23.20
431;DHT22;202;48.764;9.172;2023-04-03T16:39:48;8.10;22.90
431;DHT22;202;48.764;9.172;2023-04-03T16:42:15;8.00;23.00
431;DHT22;202;48.764;9.172;2023-04-03T16:44:42;8.00;22.90
431;DHT22;202;48.764;9.172;2023-04-03T16:47:09;7.90;23.40
431;DHT22;202;48.764;9.172;2023-04-03T16:49:38;7.90;23.90
431;DHT22;202;48.764;9.172;2023-04-03T16:52:05;8.00;23.10
431;DHT22;202;48.764;9.172;2023-04-03T16:54:32;8.00;23.20
431;DHT22;202;48.764;9.172;2023-04-03T16:57:00;8.10;23.50
431;DHT22;202;48.764;9.172;2023-04-03T16:59:27;8.10;23.90
431;DHT22;202;48.764;9.172;2023-04-03T17:01:54;8.10;24.60
431;DHT22;202;48.764;9.172;2023-04-03T17:04:21;8.20;24.60
431;DHT22;202;48.764;9.172;2023-04-03T17:06:49;8.10;24.60
431;DHT22;202;48.764;9.172;2023-04-03T17:09:17;8.20;25.20
431;DHT22;202;48.764;9.172;2023-04-03T17:11:47;8.30;24.70
431;DHT22;202;48.764;9.172;2023-04-03T17:14:16;8.20;25.20
431;DHT22;202;48.764;9.172;2023-04-03T17:16:43;8.10;24.60
431;DHT22;202;48.764;9.172;2023-04-03T17:19:13;8.00;24.50
431;DHT22;202;48.764;9.172;2023-04-03T17:25:02;7.70;24.60
431;DHT22;202;48.764;9.172;2023-04-03T17:27:46;7.70;24.30
431;DHT22;202;48.764;9.172;2023-04-03T17:30:18;7.80;25.00
431;DHT22;202;48.764;9.172;2023-04-03T17:32:45;7.80;24.40
431;DHT22;202;48.764;9.172;2023-04-03T17:35:14;7.90;24.50
431;DHT22;202;48.764;9.172;2023-04-03T17:37:48;7.80;24.60
431;DHT22;202;48.764;9.172;2023-04-03T17:40:15;7.80;24.40
431;DHT22;202;48.764;9.172;2023-04-03T17:42:43;7.70;24.30
431;DHT22;202;48.764;9.172;2023-04-03T17:45:10;7.60;24.40
431;DHT22;202;48.764;9.172;2023-04-03T17:47:39;7.50;25.10
431;DHT22;202;48.764;9.172;2023-04-03T17:50:06;7.60;24.80
431;DHT22;202;48.764;9.172;2023-04-03T17:52:33;7.60;24.80
431;DHT22;202;48.764;9.172;2023-04-03T17:55:00;7.70;24.80
431;DHT22;202;48.764;9.172;2023-04-03T17:57:28;7.80;24.40
431;DHT22;202;48.764;9.172;2023-04-03T17:59:59;7.80;24.40
431;DHT22;202;48.764;9.172;2023-04-03T18:02:26;7.80;24.90
431;DHT22;202;48.764;9.172;2023-04-03T18:04:55;7.70;24.40
431;DHT22;202;48.764;9.172;2023-04-03T18:07:25;7.60;24.90
431;DHT22;202;48.764;9.172;2023-04-03T18:09:54;7.60;25.10
431;DHT22;202;48.764;9.172;2023-04-03T18:12:22;7.50;25.20
431;DHT22;202;48.764;9.172;2023-04-03T18:14:49;7.50;25.90
431;DHT22;202;48.764;9.172;2023-04-03T18:17:16;7.50;25.50
431;DHT22;202;48.764;9.172;2023-04-03T18:19:45;7.60;25.30
431;DHT22;202;48.764;9.172;2023-04-03T18:22:22;7.60;25.00
431;DHT22;202;48.764;9.172;2023-04-03T18:24:52;7.60;25.40
431;DHT22;202;48.764;9.172;2023-04-03T18:27:20;7.60;25.20
431;DHT22;202;48.764;9.172;2023-04-03T18:29:51;7.60;25.80
431;DHT22;202;48.764;9.172;2023-04-03T18:32:20;7.60;25.30
431;DHT22;202;48.764;9.172;2023-04-03T18:34:51;7.60;25.30
431;DHT22;202;48.764;9.172;2023-04-03T18:37:20;7.60;25.40
431;DHT22;202;48.764;9.172;2023-04-03T18:39:52;7.70;25.20
431;DHT22;202;48.764;9.172;2023-04-03T18:42:22;7.50;25.80
431;DHT22;202;48.764;9.172;2023-04-03T18:44:54;7.40;25.40
431;DHT22;202;48.764;9.172;2023-04-03T18:47:21;7.30;25.70
431;DHT22;202;48.764;9.172;2023-04-03T18:49:49;7.30;25.90
431;DHT22;202;48.764;9.172;2023-04-03T18:52:16;7.30;26.10
431;DHT22;202;48.764;9.172;2023-04-03T18:54:44;7.30;25.70
431;DHT22;202;48.764;9.172;2023-04-03T18:57:11;7.20;25.80
431;DHT22;202;48.764;9.172;2023-04-03T18:59:38;7.20;25.90
431;DHT22;202;48.764;9.172;2023-04-03T19:02:05;7.10;25.90
431;DHT22;202;48.764;9.172;2023-04-03T19:04:33;7.10;26.30